sensor_id;sensor_type;location;lat;lon;timestamp;temperature;humidity
44855;DHT22;30591;48.228;16.398;2022-10-26T00:01:14;8.10;99.90
44855;DHT22;30591;48.228;16.398;2022-10-26T00:03:43;8.20;99.90
44855;DHT22;30591;48.228;16.398;2022-10-26T00:06:12;7.90;99.90
44855;DHT22;30591;48.228;16.398;2022-10-26T00:08:40;7.60;99.90
44855;DHT22;30591;48.228;16.398;2022-10-26T00:11:09;7.50;99.90
44855;DHT22;30591;48.228;16.398;2022-10-26T00:13:38;7.40;99.90
44855;DHT22;30591;48.228;16.398;2022-10-26T00:16:26;7.30;99.90
44855;DHT22;30591;48.228;16.398;2022-10-26T00:18:54;7.30;99.90
44855;DHT22;30591;48.228;16.398;2022-10-26T00:21:21;7.50;99.90
44855;DHT22;30591;48.228;16.398;2022-10-26T00:23:49;7.40;99.90
44855;DHT22;30591;48.228;16.398;2022-10-26T00:26:16;7.40;99.90
44855;DHT22;30591;48.228;16.398;2022-10-26T00:28:43;7.30;99.90
44855;DHT22;30591;48.228;16.398;2022-10-26T00:31:15;7.10;99.90
44855;DHT22;30591;48.228;16.398;2022-10-26T00:33:43;7.00;99.90
44855;DHT22;30591;48.228;16.398;2022-10-26T00:36:11;7.00;99.90
44855;DHT22;30591;48.228;16.398;2022-10-26T00:38:48;7.10;99.90
44855;DHT22;30591;48.228;16.398;2022-10-26T00:41:18;7.20;99.90
44855;DHT22;30591;48.228;16.398;2022-10-26T00:43:46;7.30;99.90
44855;DHT22;30591;48.228;16.398;2022-10-26T00:46:20;7.30;99.90
44855;DHT22;30591;48.228;16.398;2022-10-26T00:49:14;7.50;99.90
44855;DHT22;30591;48.228;16.398;2022-10-26T00:51:47;7.40;99.90
44855;DHT22;30591;48.228;16.398;2022-10-26T00:54:18;7.50;99.90
44855;DHT22;30591;48.228;16.398;2022-10-26T00:56:49;7.60;99.90
44855;DHT22;30591;48.228;16.398;2022-10-26T00:59:17;7.60;99.90
44855;DHT22;30591;48.228;16.398;2022-10-26T01:01:46;7.60;99.90
44855;DHT22;30591;48.228;16.398;2022-10-26T01:04:15;7.60;99.90
44855;DHT22;30591;48.228;16.398;2022-10-26T01:06:43;7.70;99.90
44855;DHT22;30591;48.228;16.398;2022-10-26T01:09:11;7.60;99.90
44855;DHT22;30591;48.228;16.398;2022-10-26T01:11:39;7.50;99.90
44855;DHT22;30591;48.228;16.398;2022-10-26T01:14:09;7.40;99.90
44855;DHT22;30591;48.228;16.398;2022-10-26T01:22:14;7.40;99.90
44855;DHT22;30591;48.228;16.398;2022-10-26T01:30:16;7.20;99.90
44855;DHT22;30591;48.228;16.398;2022-10-26T01:36:11;7.30;99.90
44855;DHT22;30591;48.228;16.398;2022-10-26T01:41:27;7.40;99.90
44855;DHT22;30591;48.228;16.398;2022-10-26T01:44:13;7.30;99.90
44855;DHT22;30591;48.228;16.398;2022-10-26T01:46:44;7.40;99.90
44855;DHT22;30591;48.228;16.398;2022-10-26T01:49:15;7.30;99.90
44855;DHT22;30591;48.228;16.398;2022-10-26T01:51:44;7.30;99.90
44855;DHT22;30591;48.228;16.398;2022-10-26T01:54:14;7.20;99.90
44855;DHT22;30591;48.228;16.398;2022-10-26T01:56:45;7.00;99.90
44855;DHT22;30591;48.228;16.398;2022-10-26T02:07:53;6.50;99.90
44855;DHT22;30591;48.228;16.398;2022-10-26T02:13:24;6.40;99.90
44855;DHT22;30591;48.228;16.398;2022-10-26T02:21:25;6.40;99.90
44855;DHT22;30591;48.228;16.398;2022-10-26T02:23:57;6.40;99.90
44855;DHT22;30591;48.228;16.398;2022-10-26T02:26:27;6.30;99.90
44855;DHT22;30591;48.228;16.398;2022-10-26T02:29:00;6.30;99.90
44855;DHT22;30591;48.228;16.398;2022-10-26T02:31:30;6.10;99.90
44855;DHT22;30591;48.228;16.398;2022-10-26T02:33:59;6.10;99.90
44855;DHT22;30591;48.228;16.398;2022-10-26T02:36:30;6.10;99.90
44855;DHT22;30591;48.228;16.398;2022-10-26T02:39:02;6.10;99.90
44855;DHT22;30591;48.228;16.398;2022-10-26T02:41:33;6.00;99.90
44855;DHT22;30591;48.228;16.398;2022-10-26T02:44:12;5.90;99.90
44855;DHT22;30591;48.228;16.398;2022-10-26T02:46:41;6.00;99.90
44855;DHT22;30591;48.228;16.398;2022-10-26T02:49:10;5.90;99.90
44855;DHT22;30591;48.228;16.398;2022-10-26T02:54:49;5.90;99.90
44855;DHT22;30591;48.228;16.398;2022-10-26T02:57:39;6.00;99.90
44855;DHT22;30591;48.228;16.398;2022-10-26T03:00:13;6.10;99.90
44855;DHT22;30591;48.228;16.398;2022-10-26T03:02:43;6.10;99.90
44855;DHT22;30591;48.228;16.398;2022-10-26T03:05:19;6.40;99.90
44855;DHT22;30591;48.228;16.398;2022-10-26T03:07:47;6.50;99.90
44855;DHT22;30591;48.228;16.398;2022-10-26T03:10:14;6.50;99.90
44855;DHT22;30591;48.228;16.398;2022-10-26T03:12:42;6.50;99.90
44855;DHT22;30591;48.228;16.398;2022-10-26T03:15:09;6.60;99.90
44855;DHT22;30591;48.228;16.398;2022-10-26T03:17:37;6.50;99.90
44855;DHT22;30591;48.228;16.398;2022-10-26T03:20:05;6.50;99.90
44855;DHT22;30591;48.228;16.398;2022-10-26T03:22:32;6.30;99.90
44855;DHT22;30591;48.228;16.398;2022-10-26T03:25:00;6.30;99.90
44855;DHT22;30591;48.228;16.398;2022-10-26T03:27:28;6.20;99.90
44855;DHT22;30591;48.228;16.398;2022-10-26T03:29:56;6.30;99.90
44855;DHT22;30591;48.228;16.398;2022-10-26T03:32:24;6.20;99.90
44855;DHT22;30591;48.228;16.398;2022-10-26T03:34:51;6.20;99.90
44855;DHT22;30591;48.228;16.398;2022-10-26T03:37:18;6.20;99.90
44855;DHT22;30591;48.228;16.398;2022-10-26T03:39:45;6.20;99.90
44855;DHT22;30591;48.228;16.398;2022-10-26T03:42:13;6.20;99.90
44855;DHT22;30591;48.228;16.398;2022-10-26T03:44:40;6.40;99.90
44855;DHT22;30591;48.228;16.398;2022-10-26T03:47:07;6.30;99.90
44855;DHT22;30591;48.228;16.398;2022-10-26T03:49:35;6.30;99.90
44855;DHT22;30591;48.228;16.398;2022-10-26T03:52:03;6.20;99.90
44855;DHT22;30591;48.228;16.398;2022-10-26T03:54:30;6.20;99.90
44855;DHT22;30591;48.228;16.398;2022-10-26T03:56:57;6.20;99.90
44855;DHT22;30591;48.228;16.398;2022-10-26T03:59:24;6.30;99.90
44855;DHT22;30591;48.228;16.398;2022-10-26T04:01:52;6.50;99.90
44855;DHT22;30591;48.228;16.398;2022-10-26T04:04:23;6.60;99.90
44855;DHT22;30591;48.228;16.398;2022-10-26T04:06:51;6.70;99.90
44855;DHT22;30591;48.228;16.398;2022-10-26T04:09:18;6.60;99.90
44855;DHT22;30591;48.228;16.398;2022-10-26T04:11:45;6.60;99.90
44855;DHT22;30591;48.228;16.398;2022-10-26T04:14:13;6.40;99.90
44855;DHT22;30591;48.228;16.398;2022-10-26T04:16:40;6.50;99.90
44855;DHT22;30591;48.228;16.398;2022-10-26T04:19:07;6.60;99.90
44855;DHT22;30591;48.228;16.398;2022-10-26T04:21:35;6.60;99.90
44855;DHT22;30591;48.228;16.398;2022-10-26T04:24:02;6.70;99.90
44855;DHT22;30591;48.228;16.398;2022-10-26T04:26:30;6.60;99.90
44855;DHT22;30591;48.228;16.398;2022-10-26T04:28:58;6.60;99.90
44855;DHT22;30591;48.228;16.398;2022-10-26T04:31:25;6.60;99.90
44855;DHT22;30591;48.228;16.398;2022-10-26T04:33:52;6.60;99.90
44855;DHT22;30591;48.228;16.398;2022-10-26T04:36:20;6.60;99.90
44855;DHT22;30591;48.228;16.398;2022-10-26T04:38:48;6.50;99.90
44855;DHT22;30591;48.228;16.398;2022-10-26T04:41:15;6.60;99.90
44855;DHT22;30591;48.228;16.398;2022-10-26T04:43:42;6.60;99.90
44855;DHT22;30591;48.228;16.398;2022-10-26T04:46:09;6.70;99.90
44855;DHT22;30591;48.228;16.398;2022-10-26T04:48:42;6.70;99.90
44855;DHT22;30591;48.228;16.398;2022-10-26T04:51:09;6.70;99.90
44855;DHT22;30591;48.228;16.398;2022-10-26T04:53:37;6.60;99.90
44855;DHT22;30591;48.228;16.398;2022-10-26T04:56:04;6.60;99.90
44855;DHT22;30591;48.228;16.398;2022-10-26T04:58:31;6.60;99.90
44855;DHT22;30591;48.228;16.398;2022-10-26T05:01:00;6.60;99.90
44855;DHT22;30591;48.228;16.398;2022-10-26T05:03:28;6.60;99.90
44855;DHT22;30591;48.228;16.398;2022-10-26T05:05:59;6.60;99.90
44855;DHT22;30591;48.228;16.398;2022-10-26T05:08:27;6.60;99.90
44855;DHT22;30591;48.228;16.398;2022-10-26T05:10:57;6.50;99.90
44855;DHT22;30591;48.228;16.398;2022-10-26T05:13:24;6.50;99.90
44855;DHT22;30591;48.228;16.398;2022-10-26T05:15:53;6.50;99.90
44855;DHT22;30591;48.228;16.398;2022-10-26T05:18:20;6.60;99.90
44855;DHT22;30591;48.228;16.398;2022-10-26T05:20:47;6.70;99.90
44855;DHT22;30591;48.228;16.398;2022-10-26T05:23:18;6.70;99.90
44855;DHT22;30591;48.228;16.398;2022-10-26T05:25:47;6.80;99.90
44855;DHT22;30591;48.228;16.398;2022-10-26T05:28:16;6.90;99.90
44855;DHT22;30591;48.228;16.398;2022-10-26T05:30:45;6.90;99.90
44855;DHT22;30591;48.228;16.398;2022-10-26T05:33:13;7.10;99.90
44855;DHT22;30591;48.228;16.398;2022-10-26T05:35:40;7.00;99.90
44855;DHT22;30591;48.228;16.398;2022-10-26T05:38:09;6.90;99.90
44855;DHT22;30591;48.228;16.398;2022-10-26T05:40:37;6.90;99.90
44855;DHT22;30591;48.228;16.398;2022-10-26T05:43:04;7.10;99.90
44855;DHT22;30591;48.228;16.398;2022-10-26T05:45:32;7.10;99.90
44855;DHT22;30591;48.228;16.398;2022-10-26T05:47:59;7.10;99.90
44855;DHT22;30591;48.228;16.398;2022-10-26T05:50:29;7.20;99.90
44855;DHT22;30591;48.228;16.398;2022-10-26T05:52:56;7.20;99.90
44855;DHT22;30591;48.228;16.398;2022-10-26T05:55:24;7.30;99.90
44855;DHT22;30591;48.228;16.398;2022-10-26T05:57:51;7.40;99.90
44855;DHT22;30591;48.228;16.398;2022-10-26T06:00:21;7.50;99.90
44855;DHT22;30591;48.228;16.398;2022-10-26T06:05:40;7.70;99.90
44855;DHT22;30591;48.228;16.398;2022-10-26T06:08:11;7.80;99.90
44855;DHT22;30591;48.228;16.398;2022-10-26T06:10:39;7.90;99.90
44855;DHT22;30591;48.228;16.398;2022-10-26T06:13:06;8.00;99.90
44855;DHT22;30591;48.228;16.398;2022-10-26T06:15:41;8.00;99.90
44855;DHT22;30591;48.228;16.398;2022-10-26T06:24:14;8.10;99.90
44855;DHT22;30591;48.228;16.398;2022-10-26T06:26:51;8.10;99.90
44855;DHT22;30591;48.228;16.398;2022-10-26T06:31:57;8.30;99.90
44855;DHT22;30591;48.228;16.398;2022-10-26T06:34:27;8.30;99.90
44855;DHT22;30591;48.228;16.398;2022-10-26T06:36:57;8.40;99.90
44855;DHT22;30591;48.228;16.398;2022-10-26T06:39:28;8.50;99.90
44855;DHT22;30591;48.228;16.398;2022-10-26T06:41:57;8.50;99.90
44855;DHT22;30591;48.228;16.398;2022-10-26T06:44:24;8.60;99.90
44855;DHT22;30591;48.228;16.398;2022-10-26T06:49:36;8.80;99.90
44855;DHT22;30591;48.228;16.398;2022-10-26T06:52:19;9.00;99.90
44855;DHT22;30591;48.228;16.398;2022-10-26T06:54:51;9.10;99.90
44855;DHT22;30591;48.228;16.398;2022-10-26T06:57:21;9.20;99.90
44855;DHT22;30591;48.228;16.398;2022-10-26T06:59:52;9.30;99.90
44855;DHT22;30591;48.228;16.398;2022-10-26T07:02:19;9.40;99.90
44855;DHT22;30591;48.228;16.398;2022-10-26T07:04:47;9.50;99.90
44855;DHT22;30591;48.228;16.398;2022-10-26T07:07:17;9.60;99.90
44855;DHT22;30591;48.228;16.398;2022-10-26T07:09:45;9.60;99.90
44855;DHT22;30591;48.228;16.398;2022-10-26T07:12:12;9.70;99.90
44855;DHT22;30591;48.228;16.398;2022-10-26T07:14:40;9.70;99.90
44855;DHT22;30591;48.228;16.398;2022-10-26T07:17:08;9.70;99.90
44855;DHT22;30591;48.228;16.398;2022-10-26T07:19:35;9.90;99.90
44855;DHT22;30591;48.228;16.398;2022-10-26T07:22:03;10.00;99.90
44855;DHT22;30591;48.228;16.398;2022-10-26T07:24:31;10.00;99.90
44855;DHT22;30591;48.228;16.398;2022-10-26T07:26:58;10.20;99.90
44855;DHT22;30591;48.228;16.398;2022-10-26T07:29:26;10.30;99.90
44855;DHT22;30591;48.228;16.398;2022-10-26T07:31:53;10.30;99.90
44855;DHT22;30591;48.228;16.398;2022-10-26T07:34:21;10.40;99.90
44855;DHT22;30591;48.228;16.398;2022-10-26T07:36:48;10.50;99.90
44855;DHT22;30591;48.228;16.398;2022-10-26T07:39:17;10.60;99.90
44855;DHT22;30591;48.228;16.398;2022-10-26T07:41:45;10.70;99.90
44855;DHT22;30591;48.228;16.398;2022-10-26T07:44:13;10.70;99.90
44855;DHT22;30591;48.228;16.398;2022-10-26T07:46:40;10.80;99.90
44855;DHT22;30591;48.228;16.398;2022-10-26T07:49:07;10.90;99.90
44855;DHT22;30591;48.228;16.398;2022-10-26T07:51:34;10.80;99.90
44855;DHT22;30591;48.228;16.398;2022-10-26T07:54:02;10.80;99.90
44855;DHT22;30591;48.228;16.398;2022-10-26T07:56:29;10.70;99.90
44855;DHT22;30591;48.228;16.398;2022-10-26T07:58:56;10.70;99.90
44855;DHT22;30591;48.228;16.398;2022-10-26T08:01:24;10.90;99.90
44855;DHT22;30591;48.228;16.398;2022-10-26T08:03:53;11.00;99.90
44855;DHT22;30591;48.228;16.398;2022-10-26T08:06:21;11.00;99.90
44855;DHT22;30591;48.228;16.398;2022-10-26T08:08:49;11.00;99.90
44855;DHT22;30591;48.228;16.398;2022-10-26T08:11:18;11.10;99.90
44855;DHT22;30591;48.228;16.398;2022-10-26T08:13:45;11.20;99.90
44855;DHT22;30591;48.228;16.398;2022-10-26T08:16:12;11.20;99.90
44855;DHT22;30591;48.228;16.398;2022-10-26T08:18:40;11.30;99.90
44855;DHT22;30591;48.228;16.398;2022-10-26T08:21:10;11.30;99.90
44855;DHT22;30591;48.228;16.398;2022-10-26T08:23:47;11.30;99.90
44855;DHT22;30591;48.228;16.398;2022-10-26T08:26:14;11.30;99.90
44855;DHT22;30591;48.228;16.398;2022-10-26T08:28:42;11.40;99.90
44855;DHT22;30591;48.228;16.398;2022-10-26T08:31:09;11.30;99.90
44855;DHT22;30591;48.228;16.398;2022-10-26T08:33:36;11.30;99.90
44855;DHT22;30591;48.228;16.398;2022-10-26T08:36:05;11.30;99.90
44855;DHT22;30591;48.228;16.398;2022-10-26T08:38:32;11.40;99.90
44855;DHT22;30591;48.228;16.398;2022-10-26T08:41:06;11.40;99.90
44855;DHT22;30591;48.228;16.398;2022-10-26T08:43:41;11.40;99.90
44855;DHT22;30591;48.228;16.398;2022-10-26T08:46:35;11.40;99.90
44855;DHT22;30591;48.228;16.398;2022-10-26T08:49:19;11.50;99.90
44855;DHT22;30591;48.228;16.398;2022-10-26T08:51:51;11.50;99.90
44855;DHT22;30591;48.228;16.398;2022-10-26T08:56:57;11.40;99.90
44855;DHT22;30591;48.228;16.398;2022-10-26T08:59:55;11.50;99.90
44855;DHT22;30591;48.228;16.398;2022-10-26T09:02:24;11.40;99.90
44855;DHT22;30591;48.228;16.398;2022-10-26T09:04:52;11.40;99.90
44855;DHT22;30591;48.228;16.398;2022-10-26T09:07:39;11.60;99.90
44855;DHT22;30591;48.228;16.398;2022-10-26T09:11:11;11.50;99.90
44855;DHT22;30591;48.228;16.398;2022-10-26T09:16:32;11.60;99.90
44855;DHT22;30591;48.228;16.398;2022-10-26T09:22:29;11.60;99.90
44855;DHT22;30591;48.228;16.398;2022-10-26T09:25:43;11.60;99.90
44855;DHT22;30591;48.228;16.398;2022-10-26T09:27:56;11.60;99.90
44855;DHT22;30591;48.228;16.398;2022-10-26T09:30:24;11.70;99.90
44855;DHT22;30591;48.228;16.398;2022-10-26T09:32:56;11.70;99.90
44855;DHT22;30591;48.228;16.398;2022-10-26T09:35:28;11.70;99.90
44855;DHT22;30591;48.228;16.398;2022-10-26T09:38:08;11.80;99.90
44855;DHT22;30591;48.228;16.398;2022-10-26T09:40:53;11.90;99.90
44855;DHT22;30591;48.228;16.398;2022-10-26T09:43:34;11.90;99.90
44855;DHT22;30591;48.228;16.398;2022-10-26T09:46:05;12.10;99.90
44855;DHT22;30591;48.228;16.398;2022-10-26T09:48:42;12.00;99.90
44855;DHT22;30591;48.228;16.398;2022-10-26T09:51:14;12.20;99.90
44855;DHT22;30591;48.228;16.398;2022-10-26T09:53:41;12.20;99.90
44855;DHT22;30591;48.228;16.398;2022-10-26T09:56:11;12.40;99.90
44855;DHT22;30591;48.228;16.398;2022-10-26T09:58:53;12.30;99.90
44855;DHT22;30591;48.228;16.398;2022-10-26T10:01:33;12.40;99.90
44855;DHT22;30591;48.228;16.398;2022-10-26T10:04:19;12.30;99.90
44855;DHT22;30591;48.228;16.398;2022-10-26T10:07:11;12.40;99.90
44855;DHT22;30591;48.228;16.398;2022-10-26T10:09:39;12.40;99.90
44855;DHT22;30591;48.228;16.398;2022-10-26T10:12:18;12.40;99.90
44855;DHT22;30591;48.228;16.398;2022-10-26T10:14:57;12.30;99.90
44855;DHT22;30591;48.228;16.398;2022-10-26T10:17:25;12.30;99.90
44855;DHT22;30591;48.228;16.398;2022-10-26T10:19:53;12.40;99.90
44855;DHT22;30591;48.228;16.398;2022-10-26T10:22:24;12.20;99.90
44855;DHT22;30591;48.228;16.398;2022-10-26T10:24:54;12.30;99.90
44855;DHT22;30591;48.228;16.398;2022-10-26T10:27:23;12.20;99.90
44855;DHT22;30591;48.228;16.398;2022-10-26T10:29:56;12.20;99.90
44855;DHT22;30591;48.228;16.398;2022-10-26T10:32:31;12.20;99.90
44855;DHT22;30591;48.228;16.398;2022-10-26T10:35:23;12.30;99.90
44855;DHT22;30591;48.228;16.398;2022-10-26T10:37:51;12.20;99.90
44855;DHT22;30591;48.228;16.398;2022-10-26T10:40:21;12.20;99.90
44855;DHT22;30591;48.228;16.398;2022-10-26T10:42:50;12.20;99.90
44855;DHT22;30591;48.228;16.398;2022-10-26T10:45:22;12.30;99.90
44855;DHT22;30591;48.228;16.398;2022-10-26T10:50:51;12.40;99.90
44855;DHT22;30591;48.228;16.398;2022-10-26T11:04:43;12.20;99.90
44855;DHT22;30591;48.228;16.398;2022-10-26T11:07:17;12.20;99.90
44855;DHT22;30591;48.228;16.398;2022-10-26T11:09:48;12.20;99.90
44855;DHT22;30591;48.228;16.398;2022-10-26T11:12:22;12.20;99.90
44855;DHT22;30591;48.228;16.398;2022-10-26T11:15:10;12.10;99.90
44855;DHT22;30591;48.228;16.398;2022-10-26T11:18:04;12.20;99.90
44855;DHT22;30591;48.228;16.398;2022-10-26T11:20:38;12.20;99.90
44855;DHT22;30591;48.228;16.398;2022-10-26T11:23:20;12.10;99.90
44855;DHT22;30591;48.228;16.398;2022-10-26T11:25:55;12.20;99.90
44855;DHT22;30591;48.228;16.398;2022-10-26T11:31:04;12.20;99.90
44855;DHT22;30591;48.228;16.398;2022-10-26T11:33:41;12.30;99.90
44855;DHT22;30591;48.228;16.398;2022-10-26T11:36:17;12.30;99.90
44855;DHT22;30591;48.228;16.398;2022-10-26T11:39:05;12.30;99.90
44855;DHT22;30591;48.228;16.398;2022-10-26T11:42:42;12.30;99.90
44855;DHT22;30591;48.228;16.398;2022-10-26T11:45:08;12.40;99.90
44855;DHT22;30591;48.228;16.398;2022-10-26T11:47:41;12.50;99.90
44855;DHT22;30591;48.228;16.398;2022-10-26T11:50:12;12.50;99.90
44855;DHT22;30591;48.228;16.398;2022-10-26T11:52:47;12.70;99.90
44855;DHT22;30591;48.228;16.398;2022-10-26T11:55:17;12.80;99.90
44855;DHT22;30591;48.228;16.398;2022-10-26T11:57:46;13.00;99.90
44855;DHT22;30591;48.228;16.398;2022-10-26T12:00:18;13.00;99.90
44855;DHT22;30591;48.228;16.398;2022-10-26T12:02:57;13.00;99.90
44855;DHT22;30591;48.228;16.398;2022-10-26T12:08:30;13.20;99.90
44855;DHT22;30591;48.228;16.398;2022-10-26T12:14:08;13.00;99.90
44855;DHT22;30591;48.228;16.398;2022-10-26T12:16:43;12.90;99.90
44855;DHT22;30591;48.228;16.398;2022-10-26T12:22:24;12.90;99.90
44855;DHT22;30591;48.228;16.398;2022-10-26T12:35:49;12.90;99.90
44855;DHT22;30591;48.228;16.398;2022-10-26T12:48:48;13.20;99.90
44855;DHT22;30591;48.228;16.398;2022-10-26T12:54:23;13.20;99.90
44855;DHT22;30591;48.228;16.398;2022-10-26T12:57:07;13.30;99.90
44855;DHT22;30591;48.228;16.398;2022-10-26T12:59:54;13.30;99.90
44855;DHT22;30591;48.228;16.398;2022-10-26T13:05:41;13.10;99.90
44855;DHT22;30591;48.228;16.398;2022-10-26T13:08:12;13.20;99.90
44855;DHT22;30591;48.228;16.398;2022-10-26T13:11:33;13.10;99.90
44855;DHT22;30591;48.228;16.398;2022-10-26T13:13:34;13.10;99.90
44855;DHT22;30591;48.228;16.398;2022-10-26T13:16:03;13.20;99.90
44855;DHT22;30591;48.228;16.398;2022-10-26T13:18:30;13.20;99.90
44855;DHT22;30591;48.228;16.398;2022-10-26T13:21:13;13.20;99.90
44855;DHT22;30591;48.228;16.398;2022-10-26T13:24:01;13.20;99.90
44855;DHT22;30591;48.228;16.398;2022-10-26T13:29:31;13.20;99.90
44855;DHT22;30591;48.228;16.398;2022-10-26T13:31:59;13.10;99.90
44855;DHT22;30591;48.228;16.398;2022-10-26T13:34:29;12.90;99.90
44855;DHT22;30591;48.228;16.398;2022-10-26T13:39:35;12.80;99.90
44855;DHT22;30591;48.228;16.398;2022-10-26T13:42:04;12.90;99.90
44855;DHT22;30591;48.228;16.398;2022-10-26T13:44:53;12.80;99.90
44855;DHT22;30591;48.228;16.398;2022-10-26T13:47:50;12.80;99.90
44855;DHT22;30591;48.228;16.398;2022-10-26T13:50:23;12.80;99.90
44855;DHT22;30591;48.228;16.398;2022-10-26T13:52:59;12.70;99.90
44855;DHT22;30591;48.228;16.398;2022-10-26T13:55:33;12.70;99.90
44855;DHT22;30591;48.228;16.398;2022-10-26T13:58:27;12.70;99.90
44855;DHT22;30591;48.228;16.398;2022-10-26T14:01:03;12.60;99.90
44855;DHT22;30591;48.228;16.398;2022-10-26T14:03:31;12.60;99.90
44855;DHT22;30591;48.228;16.398;2022-10-26T14:05:58;12.50;99.90
44855;DHT22;30591;48.228;16.398;2022-10-26T14:08:25;12.50;99.90
44855;DHT22;30591;48.228;16.398;2022-10-26T14:10:57;12.50;99.90
44855;DHT22;30591;48.228;16.398;2022-10-26T14:13:26;12.50;99.90
44855;DHT22;30591;48.228;16.398;2022-10-26T14:15:56;12.50;99.90
44855;DHT22;30591;48.228;16.398;2022-10-26T14:18:29;12.50;99.90
44855;DHT22;30591;48.228;16.398;2022-10-26T14:21:06;12.40;99.90
44855;DHT22;30591;48.228;16.398;2022-10-26T14:23:35;12.40;99.90
44855;DHT22;30591;48.228;16.398;2022-10-26T14:26:03;12.40;99.90
44855;DHT22;30591;48.228;16.398;2022-10-26T14:28:36;12.30;99.90
44855;DHT22;30591;48.228;16.398;2022-10-26T14:31:22;12.30;99.90
44855;DHT22;30591;48.228;16.398;2022-10-26T14:33:51;12.30;99.90
44855;DHT22;30591;48.228;16.398;2022-10-26T14:36:21;12.30;99.90
44855;DHT22;30591;48.228;16.398;2022-10-26T14:38:56;12.20;99.90
44855;DHT22;30591;48.228;16.398;2022-10-26T14:41:24;12.20;99.90
44855;DHT22;30591;48.228;16.398;2022-10-26T14:43:55;12.20;99.90
44855;DHT22;30591;48.228;16.398;2022-10-26T14:46:23;12.20;99.90
44855;DHT22;30591;48.228;16.398;2022-10-26T14:48:58;12.20;99.90
44855;DHT22;30591;48.228;16.398;2022-10-26T14:51:28;12.20;99.90
44855;DHT22;30591;48.228;16.398;2022-10-26T14:53:57;12.20;99.90
44855;DHT22;30591;48.228;16.398;2022-10-26T14:59:11;12.10;99.90
44855;DHT22;30591;48.228;16.398;2022-10-26T15:01:55;12.10;99.90
44855;DHT22;30591;48.228;16.398;2022-10-26T15:05:00;12.10;99.90
44855;DHT22;30591;48.228;16.398;2022-10-26T15:07:35;12.10;99.90
44855;DHT22;30591;48.228;16.398;2022-10-26T15:10:04;12.10;99.90
44855;DHT22;30591;48.228;16.398;2022-10-26T15:12:37;12.10;99.90
44855;DHT22;30591;48.228;16.398;2022-10-26T15:17:54;12.10;99.90
44855;DHT22;30591;48.228;16.398;2022-10-26T15:20:23;12.10;99.90
44855;DHT22;30591;48.228;16.398;2022-10-26T15:22:54;12.10;99.90
44855;DHT22;30591;48.228;16.398;2022-10-26T15:25:56;12.10;99.90
44855;DHT22;30591;48.228;16.398;2022-10-26T15:28:37;12.00;99.90
44855;DHT22;30591;48.228;16.398;2022-10-26T15:31:27;12.00;99.90
44855;DHT22;30591;48.228;16.398;2022-10-26T15:36:32;12.00;99.90
44855;DHT22;30591;48.228;16.398;2022-10-26T15:39:01;12.00;99.90
44855;DHT22;30591;48.228;16.398;2022-10-26T15:41:37;12.00;99.90
44855;DHT22;30591;48.228;16.398;2022-10-26T15:44:12;12.00;99.90
44855;DHT22;30591;48.228;16.398;2022-10-26T15:46:42;12.00;99.90
44855;DHT22;30591;48.228;16.398;2022-10-26T15:49:17;11.90;99.90
44855;DHT22;30591;48.228;16.398;2022-10-26T15:51:47;11.90;99.90
44855;DHT22;30591;48.228;16.398;2022-10-26T15:54:14;11.90;99.90
44855;DHT22;30591;48.228;16.398;2022-10-26T15:56:42;11.90;99.90
44855;DHT22;30591;48.228;16.398;2022-10-26T15:59:17;11.90;99.90
44855;DHT22;30591;48.228;16.398;2022-10-26T16:01:46;11.90;99.90
44855;DHT22;30591;48.228;16.398;2022-10-26T16:04:13;11.90;99.90
44855;DHT22;30591;48.228;16.398;2022-10-26T16:06:41;11.90;99.90
44855;DHT22;30591;48.228;16.398;2022-10-26T16:09:17;11.90;99.90
44855;DHT22;30591;48.228;16.398;2022-10-26T16:11:45;11.80;99.90
44855;DHT22;30591;48.228;16.398;2022-10-26T16:14:12;11.80;99.90
44855;DHT22;30591;48.228;16.398;2022-10-26T16:16:39;11.80;99.90
44855;DHT22;30591;48.228;16.398;2022-10-26T16:19:08;11.80;99.90
44855;DHT22;30591;48.228;16.398;2022-10-26T16:21:59;11.80;99.90
44855;DHT22;30591;48.228;16.398;2022-10-26T16:24:28;11.80;99.90
44855;DHT22;30591;48.228;16.398;2022-10-26T16:26:56;11.70;99.90
44855;DHT22;30591;48.228;16.398;2022-10-26T16:29:23;11.80;99.90
44855;DHT22;30591;48.228;16.398;2022-10-26T16:31:50;11.70;99.90
44855;DHT22;30591;48.228;16.398;2022-10-26T16:34:17;11.70;99.90
44855;DHT22;30591;48.228;16.398;2022-10-26T16:36:44;11.70;99.90
44855;DHT22;30591;48.228;16.398;2022-10-26T16:39:12;11.70;99.90
44855;DHT22;30591;48.228;16.398;2022-10-26T16:41:39;11.70;99.90
44855;DHT22;30591;48.228;16.398;2022-10-26T16:44:06;11.70;99.90
44855;DHT22;30591;48.228;16.398;2022-10-26T16:46:33;11.70;99.90
44855;DHT22;30591;48.228;16.398;2022-10-26T16:49:01;11.60;99.90
44855;DHT22;30591;48.228;16.398;2022-10-26T16:51:28;11.70;99.90
44855;DHT22;30591;48.228;16.398;2022-10-26T16:53:56;11.70;99.90
44855;DHT22;30591;48.228;16.398;2022-10-26T16:56:26;11.60;99.90
44855;DHT22;30591;48.228;16.398;2022-10-26T16:58:54;11.70;99.90
44855;DHT22;30591;48.228;16.398;2022-10-26T17:01:22;11.70;99.90
44855;DHT22;30591;48.228;16.398;2022-10-26T17:03:50;11.70;99.90
44855;DHT22;30591;48.228;16.398;2022-10-26T17:06:19;11.70;99.90
44855;DHT22;30591;48.228;16.398;2022-10-26T17:08:46;11.70;99.90
44855;DHT22;30591;48.228;16.398;2022-10-26T17:11:16;11.70;99.90
44855;DHT22;30591;48.228;16.398;2022-10-26T17:13:44;11.70;99.90
44855;DHT22;30591;48.228;16.398;2022-10-26T17:16:19;11.70;99.90
44855;DHT22;30591;48.228;16.398;2022-10-26T17:18:48;11.60;99.90
44855;DHT22;30591;48.228;16.398;2022-10-26T17:21:17;11.60;99.90
44855;DHT22;30591;48.228;16.398;2022-10-26T17:23:45;11.60;99.90
44855;DHT22;30591;48.228;16.398;2022-10-26T17:26:13;11.60;99.90
44855;DHT22;30591;48.228;16.398;2022-10-26T17:28:41;11.60;99.90
44855;DHT22;30591;48.228;16.398;2022-10-26T17:31:10;11.60;99.90
44855;DHT22;30591;48.228;16.398;2022-10-26T17:33:40;11.60;99.90
44855;DHT22;30591;48.228;16.398;2022-10-26T17:36:10;11.60;99.90
44855;DHT22;30591;48.228;16.398;2022-10-26T17:38:53;11.60;99.90
44855;DHT22;30591;48.228;16.398;2022-10-26T17:41:22;11.60;99.90
44855;DHT22;30591;48.228;16.398;2022-10-26T17:43:50;11.60;99.90
44855;DHT22;30591;48.228;16.398;2022-10-26T17:46:19;11.60;99.90
44855;DHT22;30591;48.228;16.398;2022-10-26T17:48:53;11.50;99.90
44855;DHT22;30591;48.228;16.398;2022-10-26T17:51:21;11.50;99.90
44855;DHT22;30591;48.228;16.398;2022-10-26T17:53:50;11.60;99.90
44855;DHT22;30591;48.228;16.398;2022-10-26T17:56:24;11.50;99.90
44855;DHT22;30591;48.228;16.398;2022-10-26T17:58:54;11.60;99.90